Time;durP1;ratioP1;P1;durP2;ratioP2;P2;SDS_P1;SDS_P2;PMS_P1;PMS_P2;Temp;Humidity;BMP_temperature;BMP_pressure;BME280_temperature;BME280_humidity;BME280_pressure;Samples;Min_cycle;Max_cycle;Signal;HPM_P1;HPM_P2
2021/11/02 00:02:07;;;;;;;4.80;2.73;;;;;;;10.17;68.24;99957.88;6106525;28;20239;-62
2021/11/02 00:05:29;;;;;;;7.50;3.60;;;;;;;9.69;69.83;99960.59;6108759;28;20302;-62
2021/11/02 00:08:51;;;;;;;5.93;4.33;;;;;;;9.54;70.77;99964.31;6107412;29;20236;-61
2021/11/02 00:12:12;;;;;;;11.57;3.67;;;;;;;9.13;72.33;99966.78;6105348;28;20827;-62
2021/11/02 00:15:41;;;;;;;7.00;3.27;;;;;;;9.53;70.58;99966.06;6108413;28;20232;-61
2021/11/02 00:19:05;;;;;;;20.27;3.70;;;;;;;9.65;70.69;99958.06;6108006;29;21198;-62
2021/11/02 00:22:28;;;;;;;4.47;3.33;;;;;;;9.77;69.43;99953.47;6109880;28;20554;-62
2021/11/02 00:25:49;;;;;;;8.03;3.70;;;;;;;9.65;69.74;99954.56;6111894;28;20247;-62
2021/11/02 00:29:10;;;;;;;4.63;3.17;;;;;;;9.41;71.73;99956.75;6105719;29;20597;-63
2021/11/02 00:32:36;;;;;;;6.50;3.13;;;;;;;9.32;71.66;99958.66;6106680;28;20263;-62
2021/11/02 00:35:58;;;;;;;6.17;4.00;;;;;;;9.54;71.04;99949.59;6119309;28;20240;-62
2021/11/02 00:39:19;;;;;;;8.60;3.37;;;;;;;9.24;71.92;99954.44;6108144;29;20201;-62
2021/11/02 00:42:49;;;;;;;5.57;3.70;;;;;;;9.32;71.70;99951.72;6107609;28;20255;-62
2021/11/02 00:46:10;;;;;;;8.20;3.23;;;;;;;9.33;71.41;99947.41;6110068;28;20227;-61
2021/11/02 00:49:33;;;;;;;6.57;3.70;;;;;;;9.66;70.94;99945.91;6107044;29;20208;-62
2021/11/02 00:52:54;;;;;;;4.67;3.30;;;;;;;9.52;70.86;99946.19;6105897;28;20227;-61
2021/11/02 00:56:15;;;;;;;6.50;3.17;;;;;;;9.10;72.41;99951.25;6118535;28;20239;-62
2021/11/02 00:59:37;;;;;;;7.67;4.40;;;;;;;9.53;71.08;99950.47;6108191;29;20223;-62
2021/11/02 01:02:58;;;;;;;8.50;3.20;;;;;;;9.61;70.86;99932.13;6100894;28;20239;-62
2021/11/02 01:06:20;;;;;;;7.80;3.87;;;;;;;9.59;70.20;99939.94;6108492;28;20833;-61
2021/11/02 01:09:43;;;;;;;6.80;4.30;;;;;;;9.44;71.38;99935.91;6109583;29;20212;-62
2021/11/02 01:13:04;;;;;;;6.13;3.10;;;;;;;9.83;69.82;99937.78;6107256;28;20255;-62
2021/11/02 01:16:25;;;;;;;7.60;3.40;;;;;;;9.75;70.11;99939.66;6122853;28;20232;-62
2021/11/02 01:19:46;;;;;;;5.97;3.57;;;;;;;9.50;70.70;99927.16;6109125;29;20339;-62
2021/11/02 01:23:15;;;;;;;7.80;3.90;;;;;;;9.33;71.44;99932.66;6109058;28;20232;-62
2021/11/02 01:26:36;;;;;;;7.40;3.67;;;;;;;9.44;70.96;99919.44;6118005;28;20322;-62
2021/11/02 01:29:57;;;;;;;4.90;3.27;;;;;;;9.10;72.81;99927.00;6107928;29;20501;-61
2021/11/02 01:33:19;;;;;;;5.80;3.03;;;;;;;9.53;71.23;99926.22;6104118;28;20371;-62
2021/11/02 01:36:45;;;;;;;5.90;2.87;;;;;;;9.61;71.32;99924.34;6118678;28;20235;-62
2021/11/02 01:40:13;;;;;;;8.27;3.53;;;;;;;9.34;72.24;99913.56;6119481;29;20944;-62
2021/11/02 01:43:37;;;;;;;7.33;3.10;;;;;;;9.06;73.28;99918.41;6107467;29;20228;-62
2021/11/02 01:47:00;;;;;;;7.13;3.90;;;;;;;8.83;73.66;99921.38;6119241;28;21929;-61
2021/11/02 01:50:25;;;;;;;5.43;3.70;;;;;;;9.26;73.15;99926.69;6104273;29;20779;-62
2021/11/02 01:53:47;;;;;;;5.63;3.57;;;;;;;9.27;72.52;99927.56;6104092;29;20236;-61
2021/11/02 01:57:10;;;;;;;11.27;5.63;;;;;;;9.12;73.39;99926.09;6108782;28;20236;-61
2021/11/02 02:00:33;;;;;;;5.83;4.83;;;;;;;9.29;72.62;99930.16;6108679;28;20209;-60
2021/11/02 02:04:11;;;;;;;7.20;4.10;;;;;;;9.36;71.99;99923.94;6111482;29;20235;-62
2021/11/02 02:07:38;;;;;;;7.67;4.03;;;;;;;9.04;72.96;99928.81;6111923;28;20685;-62
2021/11/02 02:11:05;;;;;;;7.40;4.27;;;;;;;8.83;73.56;99923.97;6123062;28;20257;-62
2021/11/02 02:14:41;;;;;;;7.80;4.50;;;;;;;9.22;72.43;99935.44;6123412;28;20203;-61
2021/11/02 02:18:08;;;;;;;9.10;3.80;;;;;;;8.92;73.49;99928.16;6108575;28;20255;-62
2021/11/02 02:21:44;;;;;;;7.77;4.47;;;;;;;8.74;73.97;99930.16;6109613;28;20706;-62
2021/11/02 02:25:31;;;;;;;9.07;4.43;;;;;;;8.44;75.56;99929.75;6114980;29;20216;-63
2021/11/02 02:29:03;;;;;;;4.93;4.23;;;;;;;8.43;76.03;99929.78;6110896;29;20228;-62
2021/11/02 02:32:27;;;;;;;7.80;4.87;;;;;;;8.57;75.24;99924.38;6108319;28;20325;-62
2021/11/02 02:35:50;;;;;;;6.03;3.67;;;;;;;8.82;74.97;99919.66;6108993;28;20204;-62
2021/11/02 02:39:14;;;;;;;7.40;4.13;;;;;;;8.55;75.41;99915.75;6120871;29;20487;-62
2021/11/02 02:42:48;;;;;;;6.67;4.47;;;;;;;8.58;74.78;99911.38;6122293;28;20235;-62
2021/11/02 02:46:13;;;;;;;10.53;4.57;;;;;;;8.69;75.16;99908.63;6107736;28;20310;-61
2021/11/02 02:49:35;;;;;;;6.87;4.10;;;;;;;8.18;76.53;99914.53;6108457;29;20311;-62
2021/11/02 02:53:01;;;;;;;10.27;5.50;;;;;;;8.35;76.27;99914.28;6120104;28;20228;-62
2021/11/02 02:56:24;;;;;;;5.87;4.70;;;;;;;8.55;75.50;99906.25;6112507;28;20240;-61
2021/11/02 02:59:46;;;;;;;5.77;3.93;;;;;;;8.65;75.63;99906.97;6123518;28;20303;-62
2021/11/02 03:03:12;;;;;;;6.67;4.33;;;;;;;8.31;77.04;99911.75;6118364;28;20243;-61
2021/11/02 03:06:43;;;;;;;8.83;4.27;;;;;;;8.54;75.86;99907.13;6126033;28;20290;-62
2021/11/02 03:10:06;;;;;;;7.00;3.93;;;;;;;8.93;74.71;99919.50;6127569;28;20228;-62
2021/11/02 03:13:31;;;;;;;6.93;4.27;;;;;;;9.12;73.86;99920.03;6114933;28;20278;-62
2021/11/02 03:16:58;;;;;;;6.77;4.80;;;;;;;8.94;74.04;99926.41;6127019;28;20240;-63
2021/11/02 03:50:12;;;;;;;7.30;5.07;;;;;;;7.97;77.68;99910.50;6113435;29;20224;-62
2021/11/02 03:57:34;;;;;;;6.53;4.13;;;;;;;8.31;76.96;99910.03;6126927;28;21228;-61
2021/11/02 04:23:35;;;;;;;7.53;4.70;;;;;;;8.11;76.33;99910.31;6114763;28;20235;-62
2021/11/02 04:27:22;;;;;;;9.53;4.90;;;;;;;8.23;76.25;99919.66;6124745;28;20236;-62
2021/11/02 04:31:12;;;;;;;8.33;4.60;;;;;;;8.34;76.44;99922.09;6115605;28;20323;-62
2021/11/02 05:08:03;;;;;;;7.03;5.23;;;;;;;8.80;72.67;99916.22;6110217;28;20240;-62
2021/11/02 05:48:52;;;;;;;13.97;5.63;;;;;;;8.53;73.96;99914.91;6122613;28;20236;-63
2021/11/02 05:56:18;;;;;;;8.70;6.83;;;;;;;8.20;75.37;99920.56;6110460;28;20246;-62
2021/11/02 05:59:49;;;;;;;9.73;5.33;;;;;;;8.46;74.09;99916.75;6122193;29;20212;-62
2021/11/02 06:03:33;;;;;;;8.33;5.80;;;;;;;8.54;73.83;99919.25;6104684;28;20502;-60
2021/11/02 06:07:22;;;;;;;9.37;5.87;;;;;;;8.64;73.79;99915.63;6108011;28;20641;-61
2021/11/02 06:11:02;;;;;;;9.80;5.00;;;;;;;8.57;73.79;99919.19;6105959;28;20675;-61
2021/11/02 06:29:30;;;;;;;12.03;5.73;;;;;;;8.05;76.84;99924.22;6117599;29;20235;-60
2021/11/02 06:33:02;;;;;;;8.50;6.20;;;;;;;8.13;75.96;99920.66;6114381;28;20244;-60
2021/11/02 06:36:57;;;;;;;10.20;5.33;;;;;;;7.91;77.59;99931.31;6114776;28;20239;-61
2021/11/02 06:48:03;;;;;;;7.20;5.20;;;;;;;8.18;76.08;99937.88;6114562;28;20608;-60
2021/11/02 06:55:36;;;;;;;8.73;7.83;;;;;;;8.36;75.63;99949.75;6114725;29;20208;-61
2021/11/02 06:59:24;;;;;;;9.17;5.83;;;;;;;8.38;74.93;99947.97;6107982;28;20358;-62
2021/11/02 07:17:36;;;;;;;9.47;4.83;;;;;;;8.50;74.08;99975.53;6112929;28;20231;-62
2021/11/02 07:21:03;;;;;;;11.73;5.40;;;;;;;8.61;73.59;99978.81;6112535;28;20235;-62
2021/11/02 07:24:32;;;;;;;11.27;6.23;;;;;;;8.54;74.10;99986.72;6116456;29;20319;-61
2021/11/02 07:28:11;;;;;;;10.07;5.67;;;;;;;8.27;74.53;99991.34;6113842;28;20240;-61
2021/11/02 08:45:50;;;;;;;11.40;6.00;;;;;;;10.67;66.73;99950.75;6112822;28;20200;-62
2021/11/02 08:49:11;;;;;;;11.90;7.03;;;;;;;10.67;65.77;99952.50;6112948;29;20224;-63
2021/11/02 08:52:34;;;;;;;13.87;6.93;;;;;;;10.73;65.61;99942.78;6111227;28;20680;-63
2021/11/02 08:55:55;;;;;;;12.10;6.83;;;;;;;10.51;66.53;99952.00;6111200;28;20235;-61
2021/11/02 08:59:16;;;;;;;14.07;7.10;;;;;;;10.70;66.51;99948.09;6113085;29;20236;-63
2021/11/02 09:02:41;;;;;;;13.70;8.30;;;;;;;10.57;67.29;99946.66;6112778;28;20232;-62
2021/11/02 09:06:07;;;;;;;12.73;7.70;;;;;;;11.05;65.26;99946.38;6110406;28;20231;-63
2021/11/02 09:09:33;;;;;;;14.77;6.90;;;;;;;10.76;66.46;99947.94;6112608;29;20247;-63
2021/11/02 09:12:56;;;;;;;12.30;8.87;;;;;;;10.68;66.93;99942.03;6111947;28;20255;-62
2021/11/02 09:16:18;;;;;;;9.93;6.23;;;;;;;10.40;67.58;99953.06;6117408;28;20257;-62
2021/11/02 09:19:39;;;;;;;11.70;7.23;;;;;;;11.31;65.04;99948.31;6117927;29;20508;-63
2021/11/02 09:23:01;;;;;;;11.70;7.03;;;;;;;11.42;64.79;99942.81;6115383;28;20334;-60
2021/11/02 09:26:25;;;;;;;9.13;6.20;;;;;;;11.79;63.56;99937.44;6118060;28;20239;-62
2021/11/02 09:29:47;;;;;;;11.63;6.33;;;;;;;11.01;65.61;99936.91;6116899;29;20212;-63
2021/11/02 09:33:09;;;;;;;7.87;5.93;;;;;;;11.88;62.75;99941.53;6115599;28;20732;-63
2021/11/02 09:36:40;;;;;;;11.00;7.57;;;;;;;11.64;64.20;99935.28;6115225;28;20231;-62
2021/11/02 09:40:10;;;;;;;10.53;7.53;;;;;;;11.75;62.87;99932.38;6115850;29;20294;-62
2021/11/02 09:44:12;;;;;;;10.50;6.80;;;;;;;12.01;62.84;99937.72;6116783;29;20231;-62
2021/11/02 09:47:59;;;;;;;15.30;9.63;;;;;;;12.74;60.66;99933.78;6104221;28;20232;-62
2021/11/02 09:52:03;;;;;;;15.77;8.50;;;;;;;12.59;60.21;99939.47;6115152;28;20240;-62
2021/11/02 09:55:51;;;;;;;13.37;6.93;;;;;;;12.38;61.59;99931.41;6116678;29;20526;-63
2021/11/02 09:59:48;;;;;;;16.67;9.03;;;;;;;13.86;57.58;99934.34;6117169;28;20235;-62
2021/11/02 10:03:41;;;;;;;13.13;7.50;;;;;;;14.92;54.46;99930.25;6116472;28;20240;-64
2021/11/02 10:07:24;;;;;;;12.93;7.47;;;;;;;13.64;56.71;99925.56;6116684;28;20717;-62
2021/11/02 10:11:01;;;;;;;14.07;7.80;;;;;;;14.14;55.93;99925.47;6112277;28;20220;-63
2021/11/02 10:14:59;;;;;;;9.93;7.07;;;;;;;14.22;55.79;99933.03;6117946;29;20203;-62
2021/11/02 10:18:58;;;;;;;10.63;5.83;;;;;;;13.30;58.27;99931.97;6115419;28;20263;-63
2021/11/02 10:22:54;;;;;;;12.53;6.67;;;;;;;13.47;57.50;99934.84;6116612;28;21449;-63
2021/11/02 10:26:26;;;;;;;7.53;5.80;;;;;;;12.91;59.45;99929.75;6115574;28;20235;-62
2021/11/02 10:33:49;;;;;;;13.37;7.00;;;;;;;14.21;56.46;99921.72;6116187;28;20562;-64
2021/11/02 10:37:23;;;;;;;8.03;5.93;;;;;;;14.18;55.51;99922.66;6127008;28;20240;-63
2021/11/02 10:40:53;;;;;;;9.63;5.67;;;;;;;13.52;58.29;99932.09;6112848;28;20235;-59
2021/11/02 10:44:25;;;;;;;10.17;6.67;;;;;;;13.68;57.45;99922.78;6116292;29;20208;-59
2021/11/02 10:47:59;;;;;;;14.17;6.83;;;;;;;13.57;58.03;99930.16;6127072;28;20250;-63
2021/11/02 10:51:35;;;;;;;12.27;6.73;;;;;;;13.66;57.79;99923.75;6115438;28;20243;-62
2021/11/02 10:55:18;;;;;;;9.40;6.03;;;;;;;14.55;55.17;99915.97;6116274;29;20220;-62
2021/11/02 10:58:43;;;;;;;12.17;6.47;;;;;;;15.02;53.90;99919.41;6116989;29;20239;-62
2021/11/02 11:02:06;;;;;;;8.10;5.93;;;;;;;14.73;53.38;99927.56;6115228;28;20240;-62
2021/11/02 11:05:27;;;;;;;12.43;7.43;;;;;;;15.82;51.76;99913.34;6115298;29;20247;-62
2021/11/02 11:08:49;;;;;;;8.20;5.77;;;;;;;17.85;45.85;99912.16;6113610;28;20235;-62
2021/11/02 11:12:15;;;;;;;9.90;5.43;;;;;;;22.12;37.86;99899.75;6115077;28;20645;-62
2021/11/02 11:15:36;;;;;;;10.38;7.30;;;;;;;24.44;31.92;99889.16;6116071;28;20629;-62
2021/11/02 11:19:06;;;;;;;12.45;7.65;;;;;;;22.17;35.08;99886.97;6116233;29;20280;-62
2021/11/02 11:22:35;;;;;;;7.60;5.50;;;;;;;24.75;31.00;99882.16;6115812;28;20239;-63
2021/11/02 11:26:02;;;;;;;11.30;7.53;;;;;;;23.06;32.62;99878.78;6115920;28;20231;-62
2021/11/02 11:29:27;;;;;;;13.05;5.43;;;;;;;24.85;30.26;99882.25;6115359;29;20216;-63
2021/11/02 11:32:50;;;;;;;6.70;5.05;;;;;;;25.39;29.88;99879.56;6115628;28;20247;-64
2021/11/02 11:36:16;;;;;;;12.98;5.20;;;;;;;25.78;28.56;99875.22;6114569;28;20283;-63
2021/11/02 11:39:38;;;;;;;9.23;7.28;;;;;;;25.00;30.10;99871.28;6115108;29;20212;-61
2021/11/02 11:42:59;;;;;;;9.57;6.07;;;;;;;26.03;27.79;99868.59;6114562;28;20247;-63
2021/11/02 11:46:25;;;;;;;10.35;5.90;;;;;;;23.57;32.60;99875.69;6113955;28;20236;-63
2021/11/02 11:49:46;;;;;;;11.18;4.80;;;;;;;25.97;28.15;99863.81;6115774;29;20985;-63
2021/11/02 11:53:09;;;;;;;7.60;5.00;;;;;;;26.86;26.47;99861.13;6113997;28;20236;-63
2021/11/02 11:56:36;;;;;;;9.00;5.95;;;;;;;27.87;25.00;99860.56;6113980;28;20235;-62
2021/11/02 12:00:02;;;;;;;5.95;4.32;;;;;;;27.43;26.15;99865.66;6115006;29;20289;-63
2021/11/02 12:03:43;;;;;;;6.93;5.07;;;;;;;27.73;25.62;99853.88;6113225;29;20593;-62
2021/11/02 12:07:15;;;;;;;8.05;5.10;;;;;;;26.18;27.53;99870.91;6110961;28;20695;-62
2021/11/02 12:10:38;;;;;;;8.88;6.03;;;;;;;22.15;33.68;99873.00;6102531;28;20232;-62
2021/11/02 12:14:07;;;;;;;8.18;5.43;;;;;;;22.52;33.75;99869.50;6104120;29;20633;-61
2021/11/02 12:17:31;;;;;;;7.03;5.40;;;;;;;25.14;29.94;99868.28;6103778;28;20258;-62
2021/11/02 12:20:55;;;;;;;6.43;5.05;;;;;;;22.65;34.05;99869.44;6108161;28;20319;-61
2021/11/02 12:24:16;;;;;;;8.35;5.18;;;;;;;19.78;38.49;99870.31;6113858;29;20317;-61
2021/11/02 12:27:41;;;;;;;8.68;6.57;;;;;;;17.98;43.71;99874.63;6112525;28;20231;-63
2021/11/02 12:31:06;;;;;;;11.10;5.78;;;;;;;18.16;43.44;99872.75;6112474;28;20323;-62
2021/11/02 12:34:28;;;;;;;6.78;5.43;;;;;;;18.18;43.63;99858.56;6114570;29;20212;-62
2021/11/02 12:37:56;;;;;;;11.48;6.38;;;;;;;18.01;43.90;99866.53;6113258;28;21447;-62
2021/11/02 12:41:20;;;;;;;8.88;5.13;;;;;;;18.63;43.15;99862.19;6111962;28;20243;-62
2021/11/02 12:44:43;;;;;;;14.63;8.70;;;;;;;16.90;46.52;99875.84;6110478;29;20212;-61
2021/11/02 12:48:09;;;;;;;8.18;6.53;;;;;;;16.54;48.06;99866.16;6107393;28;20765;-61
2021/11/02 12:51:38;;;;;;;12.20;6.10;;;;;;;16.08;49.01;99872.78;6108446;28;20256;-62
2021/11/02 12:55:03;;;;;;;14.57;6.20;;;;;;;14.27;53.89;99879.56;6112676;29;20771;-62
2021/11/02 12:58:26;;;;;;;14.47;6.63;;;;;;;14.01;55.74;99877.09;6113487;28;20358;-62
2021/11/02 13:01:49;;;;;;;12.97;9.17;;;;;;;14.62;53.85;99879.09;6111196;28;20235;-63
2021/11/02 13:05:17;;;;;;;8.47;6.60;;;;;;;14.69;54.10;99875.31;6113025;29;20208;-61
2021/11/02 13:08:46;;;;;;;11.80;9.40;;;;;;;13.89;57.25;99874.03;6107803;29;20270;-60
2021/11/02 13:12:11;;;;;;;9.93;8.20;;;;;;;14.78;54.45;99874.94;6112765;28;20243;-59
2021/11/02 13:15:33;;;;;;;12.13;9.03;;;;;;;14.86;53.78;99872.84;6112359;28;20259;-62
2021/11/02 13:18:54;;;;;;;13.53;7.67;;;;;;;14.59;53.86;99871.38;6111177;29;20245;-62
2021/11/02 13:22:17;;;;;;;16.53;8.53;;;;;;;13.94;55.75;99879.09;6107807;28;20227;-61
2021/11/02 13:25:39;;;;;;;15.53;8.00;;;;;;;14.52;54.06;99874.22;6112864;28;20287;-62
2021/11/02 13:29:12;;;;;;;14.00;7.83;;;;;;;14.50;54.16;99875.16;6112158;29;20208;-62
2021/11/02 13:32:33;;;;;;;10.97;5.83;;;;;;;13.72;55.61;99876.41;6112603;28;20625;-63
2021/11/02 13:35:56;;;;;;;17.27;6.73;;;;;;;13.49;55.84;99877.25;6113656;28;20235;-63
2021/11/02 13:39:18;;;;;;;19.43;10.00;;;;;;;13.66;55.61;99880.13;6113292;29;20220;-63
2021/11/02 13:42:46;;;;;;;11.87;7.10;;;;;;;13.48;56.22;99881.66;6111007;28;20313;-63
2021/11/02 13:46:10;;;;;;;7.43;4.90;;;;;;;13.91;54.19;99874.81;6112265;28;20227;-62
2021/11/02 13:49:30;;;;;;;21.50;5.90;;;;;;;13.94;54.16;99881.72;6111313;29;20205;-61
2021/11/02 13:52:52;;;;;;;5.37;2.40;;;;;;;13.28;53.76;99889.28;6112697;28;20264;-62
2021/11/02 13:56:16;;;;;;;2.83;1.93;;;;;;;13.12;53.36;99879.38;6111009;28;20843;-62
2021/11/02 13:59:37;;;;;;;4.27;2.20;;;;;;;13.00;53.03;99887.63;6113776;29;20242;-62
2021/11/02 14:03:02;;;;;;;6.77;2.27;;;;;;;13.70;51.79;99886.09;6129794;28;20232;-62
2021/11/02 14:06:26;;;;;;;1.77;1.60;;;;;;;13.35;51.01;99883.84;6116715;28;20232;-62
2021/11/02 14:09:55;;;;;;;3.53;1.83;;;;;;;13.47;50.50;99889.53;6116187;29;20485;-63
2021/11/02 14:13:16;;;;;;;3.63;1.33;;;;;;;12.44;52.33;99882.50;6111773;28;20235;-63
2021/11/02 14:16:40;;;;;;;15.30;1.97;;;;;;;13.06;51.05;99876.97;6111927;28;20259;-62
2021/11/02 14:20:03;;;;;;;4.03;1.50;;;;;;;12.48;52.10;99890.19;6117006;29;20269;-64
2021/11/02 14:23:34;;;;;;;3.23;1.60;;;;;;;12.94;51.31;99887.84;6115583;28;20304;-62
2021/11/02 14:26:55;;;;;;;2.60;1.60;;;;;;;13.41;50.10;99881.91;6114568;28;20278;-62
2021/11/02 14:30:24;;;;;;;1.83;1.10;;;;;;;12.96;50.43;99888.66;6116016;29;20568;-62
2021/11/02 14:33:45;;;;;;;4.30;1.00;;;;;;;12.92;50.53;99890.50;6114784;28;20247;-61
2021/11/02 14:37:12;;;;;;;2.47;1.33;;;;;;;12.28;51.46;99889.97;6108145;28;20235;-63
2021/11/02 14:40:35;;;;;;;1.87;1.40;;;;;;;12.63;50.70;99888.84;6112883;28;20315;-62
2021/11/02 14:44:26;;;;;;;1.83;0.87;;;;;;;12.71;50.26;99892.06;6110684;29;20200;-61
2021/11/02 14:47:48;;;;;;;1.87;1.10;;;;;;;13.16;50.01;99886.22;6114884;28;20228;-62
2021/11/02 14:51:25;;;;;;;2.90;1.43;;;;;;;12.70;51.30;99895.59;6113939;28;20231;-63
2021/11/02 14:54:48;;;;;;;4.03;1.10;;;;;;;12.58;51.44;99899.47;6107911;29;20487;-62
2021/11/02 14:58:09;;;;;;;2.87;1.33;;;;;;;13.26;52.07;99901.56;6109752;28;20235;-63
2021/11/02 15:02:06;;;;;;;3.83;1.47;;;;;;;12.92;52.49;99905.34;6109515;28;20688;-60
2021/11/02 15:05:28;;;;;;;3.13;1.43;;;;;;;12.44;53.62;99906.00;6110068;29;20232;-61
2021/11/02 15:08:50;;;;;;;2.73;1.63;;;;;;;12.90;53.86;99907.16;6111323;29;20224;-61
2021/11/02 15:12:14;;;;;;;4.87;1.77;;;;;;;12.89;53.72;99900.19;6114148;28;20322;-61
2021/11/02 15:15:35;;;;;;;5.50;1.67;;;;;;;12.75;54.18;99901.50;6108895;28;20201;-61
2021/11/02 15:19:01;;;;;;;3.43;2.40;;;;;;;12.16;57.29;99905.09;6114265;29;20456;-61
2021/11/02 15:22:24;;;;;;;2.03;1.70;;;;;;;12.22;56.85;99909.28;6114574;28;20236;-61
2021/11/02 15:25:46;;;;;;;4.20;2.47;;;;;;;11.92;58.39;99911.91;6116063;28;20299;-60
2021/11/02 15:29:09;;;;;;;5.80;2.70;;;;;;;11.86;59.53;99901.59;6115485;29;20208;-61
2021/11/02 15:32:38;;;;;;;6.70;2.70;;;;;;;12.05;59.18;99906.31;6114456;28;20256;-61
2021/11/02 15:36:08;;;;;;;4.33;2.93;;;;;;;11.93;59.63;99904.94;6113172;28;20684;-60
2021/11/02 15:39:29;;;;;;;4.23;3.10;;;;;;;11.99;59.58;99908.19;6115142;29;20228;-61
2021/11/02 15:42:51;;;;;;;6.87;4.57;;;;;;;12.41;58.90;99909.59;6112519;28;20236;-61
2021/11/02 15:46:21;;;;;;;6.70;3.93;;;;;;;12.37;59.43;99908.81;6113430;28;20878;-60
2021/11/02 15:49:45;;;;;;;8.23;3.93;;;;;;;12.53;58.84;99913.56;6113510;29;20235;-62
2021/11/02 15:53:09;;;;;;;8.20;4.83;;;;;;;11.92;60.26;99909.31;6110135;28;20271;-62
2021/11/02 15:56:30;;;;;;;5.73;3.47;;;;;;;12.37;59.24;99913.19;6108711;28;20256;-62
2021/11/02 16:00:06;;;;;;;7.37;4.27;;;;;;;11.89;60.62;99919.81;6113463;29;20485;-64
2021/11/02 16:03:32;;;;;;;7.03;4.57;;;;;;;12.51;58.83;99910.16;6110174;28;20247;-62
2021/11/02 16:07:05;;;;;;;4.93;4.43;;;;;;;12.11;60.66;99916.56;6110729;28;20259;-62
2021/11/02 16:10:28;;;;;;;5.93;4.07;;;;;;;11.97;60.80;99915.22;6386150;23;20250;-63
2021/11/02 16:13:49;;;;;;;8.40;4.60;;;;;;;12.18;60.68;99921.56;6133672;28;20232;-62
2021/11/02 16:17:10;;;;;;;10.30;5.17;;;;;;;12.17;60.89;99924.22;6129880;28;20242;-63
2021/11/02 16:20:35;;;;;;;7.27;4.70;;;;;;;11.80;62.57;99930.47;6132398;28;20211;-63
2021/11/02 16:23:56;;;;;;;6.90;5.13;;;;;;;11.88;62.26;99931.09;6126458;28;20211;-63
2021/11/02 16:27:21;;;;;;;10.27;5.33;;;;;;;11.95;62.13;99926.63;6133728;28;20243;-63
2021/11/02 16:30:45;;;;;;;9.53;4.60;;;;;;;11.41;63.96;99935.88;6133808;28;20219;-63
2021/11/02 16:34:16;;;;;;;5.00;3.90;;;;;;;11.92;62.50;99917.13;6135770;28;20239;-63
2021/11/02 16:37:40;;;;;;;6.13;4.37;;;;;;;11.65;63.41;99928.28;6134703;28;20231;-63
2021/11/02 16:41:04;;;;;;;7.10;3.77;;;;;;;12.01;62.61;99927.28;6133400;28;20247;-63
2021/11/02 16:44:31;;;;;;;8.77;4.70;;;;;;;11.97;62.61;99930.03;6135208;28;20524;-63
2021/11/02 16:47:56;;;;;;;10.30;5.80;;;;;;;11.79;63.23;99928.78;6134991;28;20239;-63
2021/11/02 16:51:18;;;;;;;7.53;4.30;;;;;;;11.42;65.02;99933.25;6130464;28;20630;-63
2021/11/02 16:54:43;;;;;;;6.67;4.53;;;;;;;11.61;64.24;99933.63;6128478;29;20215;-62
2021/11/02 16:58:26;;;;;;;9.50;5.03;;;;;;;11.86;63.64;99937.28;6124526;28;20254;-63
2021/11/02 17:01:47;;;;;;;8.50;4.73;;;;;;;11.39;65.42;99932.47;6127022;28;20239;-63
2021/11/02 17:05:12;;;;;;;8.87;4.63;;;;;;;11.71;63.95;99939.44;6126287;28;20286;-63
2021/11/02 17:08:33;;;;;;;8.87;4.77;;;;;;;11.34;65.90;99949.97;6119972;28;20238;-64
2021/11/02 17:11:58;;;;;;;8.77;5.20;;;;;;;11.46;65.34;99941.84;6122490;28;20322;-63
2021/11/02 17:15:20;;;;;;;7.37;6.10;;;;;;;11.28;66.14;99950.13;6126596;28;20219;-63
2021/11/02 17:18:46;;;;;;;11.97;5.33;;;;;;;11.71;64.25;99943.75;6118675;29;20251;-64
2021/11/02 17:22:08;;;;;;;10.73;5.50;;;;;;;11.61;64.82;99944.03;6123862;28;20266;-63
2021/11/02 17:25:29;;;;;;;7.13;5.33;;;;;;;11.86;63.95;99947.72;6125607;28;20345;-65
2021/11/02 17:28:54;;;;;;;6.33;4.60;;;;;;;11.83;63.70;99948.66;6132014;28;20223;-62
2021/11/02 17:32:16;;;;;;;7.00;5.40;;;;;;;11.68;64.20;99954.31;6130622;28;20231;-62
2021/11/02 17:35:37;;;;;;;10.60;6.37;;;;;;;11.37;65.47;99963.78;6133197;28;20334;-62
2021/11/02 17:38:59;;;;;;;9.77;6.47;;;;;;;11.26;65.84;99957.13;6136956;28;20203;-62
2021/11/02 17:42:20;;;;;;;6.77;5.93;;;;;;;11.16;66.95;99962.56;6133844;28;20326;-63
2021/11/02 17:45:43;;;;;;;8.80;6.70;;;;;;;11.28;66.25;99968.38;6123873;28;20207;-61
2021/11/02 17:49:05;;;;;;;11.23;6.17;;;;;;;11.25;66.25;99966.72;6131827;28;20259;-61
2021/11/02 17:52:26;;;;;;;8.70;6.63;;;;;;;11.13;66.59;99974.84;6132292;28;20254;-62
2021/11/02 17:55:47;;;;;;;9.47;6.27;;;;;;;11.38;66.18;99975.06;6137107;28;20247;-62
2021/11/02 17:59:09;;;;;;;12.00;7.17;;;;;;;11.61;65.15;99967.50;6136607;28;20235;-61
2021/11/02 18:02:32;;;;;;;12.87;8.40;;;;;;;11.38;65.57;99965.50;6137068;28;20809;-60
2021/11/02 18:05:55;;;;;;;13.23;7.67;;;;;;;11.27;66.77;99984.94;6134576;28;20707;-63
2021/11/02 18:09:17;;;;;;;11.17;6.83;;;;;;;11.29;66.17;99978.78;6131632;28;20223;-63
2021/11/02 18:12:39;;;;;;;12.37;8.43;;;;;;;11.08;67.51;99984.53;6124714;28;20234;-64
2021/11/02 18:16:01;;;;;;;9.73;8.77;;;;;;;11.11;67.06;99987.03;6124726;28;20507;-63
2021/11/02 18:19:25;;;;;;;12.87;8.40;;;;;;;11.21;67.01;99994.59;6132214;28;20216;-63
2021/11/02 18:22:48;;;;;;;12.67;8.10;;;;;;;11.54;65.15;99989.41;6128403;28;20511;-61
2021/11/02 18:26:09;;;;;;;19.10;9.50;;;;;;;11.61;64.73;99993.59;6130010;28;20231;-62
2021/11/02 18:29:31;;;;;;;16.00;9.43;;;;;;;11.62;64.41;100000.50;6129457;28;20239;-62
2021/11/02 18:32:52;;;;;;;13.67;10.03;;;;;;;11.55;64.58;99996.34;6129501;28;20692;-60
2021/11/02 18:36:15;;;;;;;18.00;10.47;;;;;;;11.45;64.61;100000.09;6132094;28;20255;-63
2021/11/02 18:39:38;;;;;;;13.43;10.30;;;;;;;11.53;64.52;100003.34;6133258;28;20212;-61
2021/11/02 18:42:59;;;;;;;13.17;8.50;;;;;;;11.45;65.26;100010.50;6134228;28;20334;-61
2021/11/02 18:46:20;;;;;;;14.87;8.87;;;;;;;11.58;64.24;99996.25;6136568;28;20238;-60
2021/11/02 18:49:42;;;;;;;100.90;91.07;;;;;;;11.53;65.08;99998.13;6135167;28;20203;-63
2021/11/02 18:53:05;;;;;;;22.70;19.17;;;;;;;11.49;65.47;100006.06;6137889;28;20875;-63
2021/11/02 18:56:27;;;;;;;14.27;10.77;;;;;;;11.60;64.53;99997.09;6135354;28;20239;-63
2021/11/02 18:59:48;;;;;;;17.93;9.60;;;;;;;11.35;65.00;100006.44;6135995;28;20199;-63
2021/11/02 19:03:12;;;;;;;12.97;9.57;;;;;;;11.43;65.04;100001.88;6136147;28;20530;-62
2021/11/02 19:06:34;;;;;;;17.40;11.63;;;;;;;11.42;65.06;100006.25;6133439;28;20235;-61
2021/11/02 19:09:56;;;;;;;12.20;9.53;;;;;;;11.33;65.53;100005.63;6133441;28;20204;-61
2021/11/02 19:13:17;;;;;;;17.07;10.20;;;;;;;11.04;66.85;100000.22;6136868;28;20231;-63
2021/11/02 19:16:39;;;;;;;16.57;10.53;;;;;;;11.22;66.23;100008.47;6133909;28;20656;-63
2021/11/02 19:20:00;;;;;;;15.87;9.87;;;;;;;11.13;66.22;100004.38;6134199;28;20207;-63
2021/11/02 19:23:21;;;;;;;12.73;9.70;;;;;;;10.88;67.06;100009.28;6137079;28;20231;-61
2021/11/02 19:26:43;;;;;;;12.67;10.17;;;;;;;11.20;65.79;100018.94;6133178;28;20239;-62
2021/11/02 19:30:06;;;;;;;14.07;12.40;;;;;;;11.16;65.85;100009.47;6138083;28;20204;-61
2021/11/02 19:33:28;;;;;;;15.20;10.67;;;;;;;11.14;66.00;100011.28;6134026;28;21023;-61
2021/11/02 19:36:49;;;;;;;16.90;12.37;;;;;;;10.97;66.65;100016.03;6135984;28;20821;-62
2021/11/02 19:40:11;;;;;;;15.70;12.53;;;;;;;11.13;65.93;100020.00;6137882;28;20451;-62
2021/11/02 19:43:33;;;;;;;16.53;11.37;;;;;;;11.16;65.98;100019.91;6132510;28;20519;-63
2021/11/02 19:46:54;;;;;;;14.80;12.00;;;;;;;11.16;65.36;100019.06;6135954;28;20259;-62
2021/11/02 19:50:17;;;;;;;14.93;11.87;;;;;;;10.96;65.84;100020.38;6133715;28;20286;-61
2021/11/02 19:53:40;;;;;;;12.27;11.10;;;;;;;10.92;66.35;100020.50;6134303;29;20227;-62
2021/11/02 19:57:03;;;;;;;18.17;11.23;;;;;;;10.88;66.04;100013.66;6133476;28;20628;-64
2021/11/02 20:00:28;;;;;;;17.70;12.03;;;;;;;10.75;66.70;100018.28;6134116;28;20548;-63
2021/11/02 20:03:50;;;;;;;16.70;12.73;;;;;;;10.65;66.92;100017.63;6133867;28;20235;-60
2021/11/02 20:07:24;;;;;;;17.27;11.17;;;;;;;10.52;67.13;100027.44;6135658;28;20250;-62
2021/11/02 20:10:51;;;;;;;14.03;12.53;;;;;;;10.31;68.52;100033.94;6130202;28;20240;-62
2021/11/02 20:14:19;;;;;;;17.37;13.27;;;;;;;9.97;70.73;100039.78;6125941;28;20219;-62
2021/11/02 20:17:46;;;;;;;18.53;14.13;;;;;;;10.30;68.87;100041.78;6128987;28;20239;-62
2021/11/02 20:21:07;;;;;;;16.00;14.50;;;;;;;10.36;68.16;100050.34;6129163;28;20254;-62